14PA weather

Public forecast

Using degrees Fahrenheit for public forecast. Weather courtesy of forecast.io.

Closest aviation weather report (METAR) to Dimascio Field

Closest report is Heritage Field, 5.6 nm (10.4 km) ESE. Retrieved 2020/08/09 00:54 UTC (28 minutes ago):

KPTW 090054Z AUTO 00000KT 10SM CLR 23/19 A3014 RMK AO2 SLP202 T02280194

Closest aviation forecast (TAF) to Dimascio Field

Closest forecast is Reading Regional Carl A Spaatz Field, 15.0 nm (27.7 km) WNW. Retrieved 2020-08-09 00:22 UTC (60 minutes ago):

TAF KRDG 082320Z 0900/0924 VRB03KT P6SM SCT045 FM090800 00000KT P6SM SCT003 TEMPO 0909/0911 3SM BR BKN003 FM091400 VRB03KT P6SM SCT035 FM091800 25006KT P6SM SCT040